Wetter & Webcam

Wetterdaten Diepholz (ETND)

METAR
Data not available. Military Control Zone (MCTR) is not permanently active (HX).

Sunrise (SR) / Sunset (SS)
04:25 / 18:32 UTC

Wetterdaten Bremen (EDDW)

METAR
METAR text: EDDW 251350Z VRB03KT CAVOK 31/14 Q1019 NOSIG Conditions at: EDDW (BREMEN , DE) observed 1350 UTC 25 August 2019 Temperature: 31.0°C (88°F) Dewpoint: 14.0°C (57°F) [RH = 36%] Pressure (altimeter): 30.09 inches Hg (1019.0 mb) Winds: variable direction winds at 3 MPH (3 knots; 1.5 m/s) Visibility: 6 or more miles (10+ km) Ceiling: ceiling and visibility are OK Clouds: unknown Weather: no significant weather observed at this time Forecast for: EDDW (BREMEN , DE) Text: EDDW 251100Z 2512/2612 08007KT CAVOK Forecast period: 1200 UTC 25 August 2019 to 1200 UTC 26 August 2019 Forecast type: FROM: standard forecast or significant change Winds: from the E (80 degrees) at 8 MPH (7 knots; 3.6 m/s) Visibility: 6 or more miles 10+ km) Ceiling: unknown Clouds: missing Weather: NSW  (no significant weather)

Copyright © 2017 Flugplatz Diepholz-Dümmerland

© 2017 Flugplatz Diepholz-Dümmerland